Seagoville's Hourly Summary for Monday, March 13, 2017
Hour Temp
(f)
RH
(%)
Solar Rad.
(MJ/m2)
Rainfall
(in)
Wind
(mph)
3/13/2017 12:00 AM 48 79 0 0 2.64
3/13/2017 1:00 AM 47 81 0 0 0.74
3/13/2017 2:00 AM 48 85 0 0 2.21
3/13/2017 3:00 AM 48 83 0 0 2.96
3/13/2017 4:00 AM 48 83 0 0 3.06
3/13/2017 5:00 AM 48 86 0 0.08 3.06
3/13/2017 6:00 AM 48 96 0 0 3.01
3/13/2017 7:00 AM 48 95 0 0 2.27
3/13/2017 8:00 AM 49 91 0.07 0 3.33
3/13/2017 9:00 AM 49 89 0.11 0 2.37
3/13/2017 10:00 AM 51 75 0.96 0.01 5.48
3/13/2017 11:00 AM 53 68 1.4 0 7.28
3/13/2017 12:00 PM 54 68 1.28 0 6.43
3/13/2017 1:00 PM 55 63 1.5 0 6.79
3/13/2017 2:00 PM 58 56 2.38 0 7.19
3/13/2017 3:00 PM 61 43 2.45 0 9.2
3/13/2017 4:00 PM 62 37 1.94 0 10.85
3/13/2017 5:00 PM 62 32 1.23 0 12.04
3/13/2017 6:00 PM 60 32 0.52 0 8.89
3/13/2017 7:00 PM 56 34 0.03 0 7.72
3/13/2017 8:00 PM 52 35 0 0 6.83
3/13/2017 9:00 PM 50 34 0 0 6.56
3/13/2017 10:00 PM 48 38 0 0 5.66
3/13/2017 11:00 PM 46 42 0 0 7.13
Data Summary 52 63 13.87 0.09 5.57